Time;durP1;ratioP1;P1;durP2;ratioP2;P2;SDS_P1;SDS_P2;PMS_P1;PMS_P2;Temp;Humidity;BMP_temperature;BMP_pressure;BME280_temperature;BME280_humidity;BME280_pressure;Samples;Min_cycle;Max_cycle;Signal;HPM_P1;HPM_P2
2022/01/02 00:02:15;;;;;;;7.28;4.10;;;;;;;;;;6279539;22;20024;-93
2022/01/02 00:05:16;;;;;;;8.13;4.45;;;;;;;;;;6279518;22;20026;-95
2022/01/02 00:08:13;;;;;;;11.57;4.00;;;;;;;;;;6280012;22;20024;-95
2022/01/02 00:10:51;;;;;;;6.47;4.05;;;;;;;;;;6274418;22;20024;-94
2022/01/02 00:13:36;;;;;;;8.73;4.68;;;;;;;;;;6279934;22;20011;-93
2022/01/02 00:16:06;;;;;;;8.25;3.90;;;;;;;;;;6279194;22;20026;-94
2022/01/02 00:18:35;;;;;;;8.18;3.67;;;;;;;;;;6279058;22;20012;-94
2022/01/02 00:21:16;;;;;;;6.18;3.90;;;;;;;;;;6281853;22;20047;-94
2022/01/02 00:24:06;;;;;;;9.90;4.18;;;;;;;;;;6278952;22;20011;-94
2022/01/02 00:26:40;;;;;;;7.22;4.57;;;;;;;;;;6278582;22;20014;-93
2022/01/02 00:29:07;;;;;;;8.00;4.20;;;;;;;;;;6278620;22;20008;-93
2022/01/02 00:31:35;;;;;;;7.13;4.20;;;;;;;;;;6278770;22;20039;-93
2022/01/02 00:34:02;;;;;;;11.38;4.60;;;;;;;;;;6278922;22;20008;-94
2022/01/02 00:36:30;;;;;;;10.02;4.50;;;;;;;;;;6253769;22;20034;-94
2022/01/02 00:38:56;;;;;;;13.15;4.88;;;;;;;;;;6304195;22;20031;-94
2022/01/02 00:41:31;;;;;;;7.55;4.28;;;;;;;;;;6304149;22;20007;-95
2022/01/02 00:44:18;;;;;;;6.75;4.07;;;;;;;;;;6304394;22;20029;-94
2022/01/02 00:46:53;;;;;;;9.93;4.22;;;;;;;;;;6243480;22;20030;-94
2022/01/02 00:49:24;;;;;;;6.32;3.97;;;;;;;;;;6304297;22;20030;-95
2022/01/02 00:52:07;;;;;;;8.75;4.53;;;;;;;;;;6303726;22;20012;-94
2022/01/02 00:54:37;;;;;;;8.35;3.85;;;;;;;;;;6304420;22;20021;-95
2022/01/02 01:00:27;;;;;;;9.20;4.53;;;;;;;;;;6305081;22;20071;-94
2022/01/02 01:02:57;;;;;;;7.55;4.45;;;;;;;;;;6304194;22;20030;-94
2022/01/02 01:05:30;;;;;;;7.00;4.38;;;;;;;;;;6304385;22;20089;-94
2022/01/02 01:08:00;;;;;;;10.50;4.57;;;;;;;;;;6304869;22;20018;-94
2022/01/02 01:10:29;;;;;;;10.57;4.22;;;;;;;;;;6304723;22;20012;-94
2022/01/02 01:13:00;;;;;;;10.27;4.30;;;;;;;;;;6304623;22;20029;-95
2022/01/02 01:15:28;;;;;;;10.23;4.70;;;;;;;;;;6304690;22;20003;-95
2022/01/02 01:17:56;;;;;;;9.25;4.63;;;;;;;;;;6304507;22;20034;-94
2022/01/02 01:20:33;;;;;;;8.77;4.75;;;;;;;;;;6304581;22;20003;-94
2022/01/02 01:23:00;;;;;;;9.23;4.50;;;;;;;;;;6304496;22;20055;-94
2022/01/02 01:25:29;;;;;;;13.63;5.20;;;;;;;;;;6304491;22;20008;-94
2022/01/02 01:27:55;;;;;;;9.30;4.75;;;;;;;;;;6304510;22;20010;-95
2022/01/02 01:30:26;;;;;;;11.77;5.28;;;;;;;;;;6273470;22;20012;-95
2022/01/02 01:33:07;;;;;;;11.70;5.82;;;;;;;;;;6270307;22;20008;-95
2022/01/02 01:35:45;;;;;;;12.43;6.53;;;;;;;;;;6273767;22;20030;-95
2022/01/02 01:38:26;;;;;;;14.57;6.50;;;;;;;;;;6279457;22;20051;-96
2022/01/02 01:41:11;;;;;;;11.57;6.55;;;;;;;;;;6280817;22;20007;-96
2022/01/02 01:44:05;;;;;;;15.25;7.20;;;;;;;;;;6279728;22;20004;-96
2022/01/02 01:46:51;;;;;;;10.02;6.50;;;;;;;;;;6299304;22;20075;-95
2022/01/02 01:49:33;;;;;;;11.55;6.28;;;;;;;;;;6303429;22;20007;-94
2022/01/02 01:52:15;;;;;;;12.77;6.97;;;;;;;;;;6280792;22;20008;-96
2022/01/02 01:55:03;;;;;;;11.85;7.00;;;;;;;;;;6281337;22;20004;-96
2022/01/02 01:57:44;;;;;;;14.52;7.22;;;;;;;;;;6279273;22;20007;-95
2022/01/02 02:00:26;;;;;;;15.93;8.43;;;;;;;;;;6280274;22;20003;-96
2022/01/02 02:03:07;;;;;;;13.75;7.15;;;;;;;;;;6280739;22;20030;-96
2022/01/02 02:05:48;;;;;;;11.50;7.25;;;;;;;;;;6280429;22;20007;-96
2022/01/02 02:08:36;;;;;;;14.20;8.02;;;;;;;;;;6303540;22;20060;-96
2022/01/02 02:11:22;;;;;;;14.00;8.02;;;;;;;;;;6279808;22;20015;-96
2022/01/02 02:14:06;;;;;;;16.65;8.32;;;;;;;;;;6303186;22;19999;-96
2022/01/02 02:16:48;;;;;;;13.07;8.43;;;;;;;;;;6280483;22;20019;-96
2022/01/02 02:19:29;;;;;;;15.98;8.55;;;;;;;;;;6280733;22;20000;-96
2022/01/02 02:22:09;;;;;;;11.02;7.50;;;;;;;;;;6280547;22;20047;-95
2022/01/02 02:24:51;;;;;;;15.75;8.55;;;;;;;;;;6278780;22;20033;-96
2022/01/02 02:27:32;;;;;;;13.00;7.63;;;;;;;;;;6280312;22;20006;-96
2022/01/02 02:30:13;;;;;;;16.48;8.48;;;;;;;;;;6280270;22;20008;-96
2022/01/02 02:33:00;;;;;;;14.15;8.48;;;;;;;;;;6280614;22;20048;-96
2022/01/02 08:30:24;;;;;;;9.52;4.28;;;;;;;;;;6251242;22;20014;-93
2022/01/02 08:32:51;;;;;;;11.35;4.05;;;;;;;;;;6303284;22;20007;-94
2022/01/02 08:35:25;;;;;;;13.85;3.90;;;;;;;;;;6304100;22;20011;-94
2022/01/02 08:38:07;;;;;;;9.32;3.92;;;;;;;;;;6280632;22;20008;-96
2022/01/02 08:40:47;;;;;;;10.65;3.85;;;;;;;;;;6280539;22;20011;-95
2022/01/02 08:48:31;;;;;;;9.57;3.92;;;;;;;;;;6226173;22;20058;-93
2022/01/02 08:51:00;;;;;;;13.90;4.15;;;;;;;;;;6298804;22;20041;-92
2022/01/02 08:53:32;;;;;;;17.48;4.72;;;;;;;;;;6301849;22;20025;-93
2022/01/02 08:56:00;;;;;;;10.48;4.70;;;;;;;;;;6275861;22;20019;-92
2022/01/02 08:58:40;;;;;;;10.40;4.43;;;;;;;;;;6279329;22;20023;-93
2022/01/02 09:01:21;;;;;;;15.90;4.18;;;;;;;;;;6280040;22;20030;-93
2022/01/02 09:04:05;;;;;;;11.27;4.32;;;;;;;;;;6280916;22;20007;-93
2022/01/02 09:06:47;;;;;;;11.15;3.70;;;;;;;;;;6302344;22;20004;-94
2022/01/02 09:09:29;;;;;;;8.05;3.45;;;;;;;;;;6301226;22;20003;-94
2022/01/02 09:12:11;;;;;;;14.05;4.07;;;;;;;;;;6297744;22;20039;-93
2022/01/02 09:14:53;;;;;;;13.95;3.60;;;;;;;;;;6301093;22;20015;-93
2022/01/02 09:17:44;;;;;;;8.18;3.17;;;;;;;;;;6278624;22;20015;-93
2022/01/02 09:20:24;;;;;;;9.40;3.25;;;;;;;;;;6277132;22;20019;-92
2022/01/02 09:23:05;;;;;;;20.15;4.18;;;;;;;;;;6298862;22;20069;-93
2022/01/02 09:25:45;;;;;;;10.30;4.05;;;;;;;;;;6300712;22;20010;-93
2022/01/02 09:28:38;;;;;;;8.98;4.05;;;;;;;;;;6299470;22;20004;-93
2022/01/02 09:31:19;;;;;;;8.93;3.28;;;;;;;;;;6300545;22;20008;-93
2022/01/02 09:33:50;;;;;;;15.07;3.58;;;;;;;;;;6235157;22;20705;-92
2022/01/02 09:39:00;;;;;;;10.30;3.50;;;;;;;;;;6299944;22;20075;-94
2022/01/02 09:41:41;;;;;;;10.13;3.70;;;;;;;;;;6295406;22;20048;-93
2022/01/02 09:44:21;;;;;;;11.50;3.97;;;;;;;;;;6300080;22;20063;-93
2022/01/02 09:47:02;;;;;;;15.10;4.50;;;;;;;;;;6299620;22;20023;-93
2022/01/02 09:49:42;;;;;;;9.23;3.60;;;;;;;;;;6296903;22;19999;-93
2022/01/02 09:52:35;;;;;;;15.35;4.15;;;;;;;;;;6300012;22;20004;-93
2022/01/02 09:55:15;;;;;;;14.13;3.88;;;;;;;;;;6299578;22;20047;-93
2022/01/02 09:58:04;;;;;;;15.32;3.47;;;;;;;;;;6300990;22;20027;-93
2022/01/02 10:00:46;;;;;;;12.68;3.80;;;;;;;;;;6299287;22;20027;-93
2022/01/02 10:03:40;;;;;;;11.70;3.58;;;;;;;;;;6298516;22;20027;-94
2022/01/02 10:06:22;;;;;;;9.88;3.50;;;;;;;;;;6302606;22;20000;-94
2022/01/02 10:09:07;;;;;;;8.50;3.70;;;;;;;;;;6298416;22;20042;-93
2022/01/02 10:11:47;;;;;;;19.55;4.20;;;;;;;;;;6300626;22;20008;-94
2022/01/02 10:14:28;;;;;;;13.75;3.40;;;;;;;;;;6300167;22;20020;-94
2022/01/02 10:17:08;;;;;;;13.80;3.97;;;;;;;;;;6300920;22;20004;-93
2022/01/02 10:19:49;;;;;;;9.60;3.80;;;;;;;;;;6299841;22;20015;-93
2022/01/02 10:26:05;;;;;;;8.75;3.30;;;;;;;;;;6302948;22;20067;-94
2022/01/02 10:28:46;;;;;;;11.75;3.88;;;;;;;;;;6302636;22;20012;-95
2022/01/02 10:31:34;;;;;;;10.32;4.30;;;;;;;;;;6302579;22;20067;-94
2022/01/02 10:36:50;;;;;;;10.80;3.42;;;;;;;;;;6279662;22;20014;-94
2022/01/02 10:39:32;;;;;;;11.32;3.58;;;;;;;;;;6300657;22;20035;-95
2022/01/02 10:42:28;;;;;;;;;;;;;;;;;;6296098;22;20065;-95
2022/01/02 10:45:10;;;;;;;9.80;3.60;;;;;;;;;;6278682;22;19926;-94
2022/01/02 10:47:43;;;;;;;15.02;4.22;;;;;;;;;;6278033;22;20012;-94
2022/01/02 10:50:24;;;;;;;9.23;4.32;;;;;;;;;;6278686;22;20059;-94
2022/01/02 10:52:51;;;;;;;12.98;3.90;;;;;;;;;;6302362;22;20004;-95
2022/01/02 10:55:31;;;;;;;20.42;4.35;;;;;;;;;;6302163;22;20016;-95
2022/01/02 10:58:13;;;;;;;13.30;4.00;;;;;;;;;;6301033;22;20011;-95
2022/01/02 11:00:58;;;;;;;15.77;3.53;;;;;;;;;;6279784;22;20000;-95
2022/01/02 11:03:46;;;;;;;13.55;3.80;;;;;;;;;;6280029;22;20071;-94
2022/01/02 11:10:09;;;;;;;15.20;3.35;;;;;;;;;;6303115;22;20038;-94
2022/01/02 11:18:04;;;;;;;12.98;3.50;;;;;;;;;;6255969;22;20004;-95
2022/01/02 11:20:46;;;;;;;12.70;3.40;;;;;;;;;;6297659;22;20011;-94
2022/01/02 11:23:30;;;;;;;11.93;3.28;;;;;;;;;;6302389;22;20016;-95
2022/01/02 11:36:26;;;;;;;9.18;3.65;;;;;;;;;;6301741;22;20058;-94
2022/01/02 11:39:05;;;;;;;8.88;3.53;;;;;;;;;;6272337;22;20024;-94
2022/01/02 11:42:04;;;;;;;8.88;3.65;;;;;;;;;;6274219;22;20119;-94
2022/01/02 11:44:48;;;;;;;11.43;3.97;;;;;;;;;;6270907;22;20034;-94
2022/01/02 11:47:39;;;;;;;12.38;3.65;;;;;;;;;;6292120;22;20027;-94
2022/01/02 11:50:30;;;;;;;11.15;3.83;;;;;;;;;;6268979;22;20008;-94
2022/01/02 11:53:24;;;;;;;11.27;3.65;;;;;;;;;;6297867;22;20023;-94
2022/01/02 11:55:52;;;;;;;10.70;3.65;;;;;;;;;;6300967;22;20012;-94
2022/01/02 11:58:58;;;;;;;8.52;2.92;;;;;;;;;;6276027;22;20029;-94
2022/01/02 12:01:48;;;;;;;10.48;3.50;;;;;;;;;;6273112;22;20083;-94
2022/01/02 12:04:16;;;;;;;10.77;3.33;;;;;;;;;;6271702;22;20075;-94
2022/01/02 12:06:52;;;;;;;8.73;4.50;;;;;;;;;;6299215;22;20020;-95
2022/01/02 12:09:33;;;;;;;13.02;4.55;;;;;;;;;;6300851;22;20038;-94
2022/01/02 12:12:14;;;;;;;9.63;3.22;;;;;;;;;;6280055;22;20027;-95
2022/01/02 12:15:00;;;;;;;9.30;3.83;;;;;;;;;;6302767;22;20061;-95
2022/01/02 12:18:19;;;;;;;13.82;3.67;;;;;;;;;;6279101;22;20007;-94
2022/01/02 12:27:44;;;;;;;12.25;3.78;;;;;;;;;;6150487;23;20033;-94
2022/01/02 12:30:19;;;;;;;8.93;4.15;;;;;;;;;;6263378;22;20028;-94
2022/01/02 12:32:50;;;;;;;9.00;3.20;;;;;;;;;;6273276;22;20008;-94
2022/01/02 12:35:18;;;;;;;9.95;4.13;;;;;;;;;;6272625;22;20034;-94
2022/01/02 12:38:21;;;;;;;17.25;3.42;;;;;;;;;;6271798;22;20027;-94
2022/01/02 12:40:59;;;;;;;8.55;3.78;;;;;;;;;;6286956;22;20028;-94
2022/01/02 12:47:12;;;;;;;6.13;2.95;;;;;;;;;;6272787;22;20000;-94
2022/01/02 12:49:41;;;;;;;10.70;2.80;;;;;;;;;;6270706;22;20043;-94
2022/01/02 12:52:12;;;;;;;9.48;4.25;;;;;;;;;;6269163;23;20024;-94
2022/01/02 12:54:40;;;;;;;10.15;2.92;;;;;;;;;;6266940;22;20109;-94
2022/01/02 12:57:16;;;;;;;5.88;3.17;;;;;;;;;;6266249;22;20034;-94
2022/01/02 12:59:50;;;;;;;8.43;2.88;;;;;;;;;;6265660;23;20080;-93
2022/01/02 13:02:22;;;;;;;8.25;2.65;;;;;;;;;;6264603;23;20031;-94
2022/01/02 13:04:56;;;;;;;8.00;3.90;;;;;;;;;;6265227;23;20095;-93
2022/01/02 13:07:24;;;;;;;9.00;2.63;;;;;;;;;;6265893;22;20016;-94
2022/01/02 13:09:55;;;;;;;8.85;3.65;;;;;;;;;;6263876;23;20028;-95
2022/01/02 13:12:54;;;;;;;6.85;2.88;;;;;;;;;;6264526;23;20008;-94
2022/01/02 13:15:22;;;;;;;6.85;2.92;;;;;;;;;;6264345;22;20067;-94
2022/01/02 13:17:53;;;;;;;8.48;3.17;;;;;;;;;;6261902;23;20032;-94
2022/01/02 13:20:48;;;;;;;5.95;2.67;;;;;;;;;;6264895;23;20071;-94
2022/01/02 13:23:16;;;;;;;11.65;2.78;;;;;;;;;;6267672;23;20409;-94
2022/01/02 13:28:48;;;;;;;7.53;3.10;;;;;;;;;;6272687;22;21341;-91
2022/01/02 13:31:25;;;;;;;6.65;2.95;;;;;;;;;;6204936;23;20069;-92
2022/01/02 13:33:53;;;;;;;10.40;2.70;;;;;;;;;;6206094;23;20021;-93
2022/01/02 13:36:23;;;;;;;5.65;2.20;;;;;;;;;;6204254;23;20021;-93
2022/01/02 13:38:58;;;;;;;7.63;3.08;;;;;;;;;;6202171;23;20025;-93
2022/01/02 13:41:56;;;;;;;8.13;2.97;;;;;;;;;;6206508;23;20019;-93
2022/01/02 13:44:24;;;;;;;10.50;2.55;;;;;;;;;;6208877;23;20023;-94
2022/01/02 13:46:52;;;;;;;8.73;3.42;;;;;;;;;;6208866;23;20009;-94
2022/01/02 13:49:48;;;;;;;8.68;2.97;;;;;;;;;;6209896;23;20021;-94
2022/01/02 13:52:16;;;;;;;8.60;3.20;;;;;;;;;;6219362;22;20559;-93
2022/01/02 13:54:46;;;;;;;5.60;2.60;;;;;;;;;;6275573;22;20007;-93
2022/01/02 13:57:14;;;;;;;7.63;3.30;;;;;;;;;;6275353;22;20034;-94
2022/01/02 13:59:43;;;;;;;9.77;2.90;;;;;;;;;;6276508;22;20008;-95
2022/01/02 14:02:10;;;;;;;7.88;3.40;;;;;;;;;;6274667;22;20043;-93
2022/01/02 14:05:15;;;;;;;7.90;2.63;;;;;;;;;;6276823;22;20023;-94
2022/01/02 14:07:42;;;;;;;8.00;2.85;;;;;;;;;;6276279;22;20011;-94
2022/01/02 14:10:09;;;;;;;9.35;2.78;;;;;;;;;;6299741;22;20026;-93
2022/01/02 14:12:39;;;;;;;10.35;2.60;;;;;;;;;;6301630;22;20024;-93
2022/01/02 14:15:28;;;;;;;9.82;2.75;;;;;;;;;;6301965;22;20034;-94
2022/01/02 14:18:06;;;;;;;8.70;2.80;;;;;;;;;;6274236;22;20016;-94
2022/01/02 14:20:37;;;;;;;12.45;2.78;;;;;;;;;;6301070;22;20007;-94
2022/01/02 14:23:05;;;;;;;5.68;2.38;;;;;;;;;;6301172;22;20023;-94
2022/01/02 14:25:38;;;;;;;8.52;2.85;;;;;;;;;;6275708;22;20012;-94
2022/01/02 14:30:41;;;;;;;6.72;2.70;;;;;;;;;;6224725;22;20016;-93
2022/01/02 14:33:11;;;;;;;7.80;2.92;;;;;;;;;;6296413;22;20054;-93
2022/01/02 14:35:40;;;;;;;6.85;2.20;;;;;;;;;;6298626;22;20004;-93
2022/01/02 14:38:07;;;;;;;8.63;2.28;;;;;;;;;;6300418;22;20173;-94
2022/01/02 14:40:37;;;;;;;8.35;2.45;;;;;;;;;;6300995;22;20008;-94
2022/01/02 14:43:04;;;;;;;7.07;2.13;;;;;;;;;;6301533;22;20029;-93
2022/01/02 14:45:45;;;;;;;6.22;1.88;;;;;;;;;;6301285;22;20046;-93
2022/01/02 14:48:12;;;;;;;7.18;1.95;;;;;;;;;;6302829;22;20067;-94
2022/01/02 14:50:50;;;;;;;6.80;1.73;;;;;;;;;;6279491;22;20011;-94
2022/01/02 14:53:20;;;;;;;5.53;1.83;;;;;;;;;;6277531;22;20007;-94
2022/01/02 14:55:47;;;;;;;9.88;1.83;;;;;;;;;;6302604;22;20057;-95
2022/01/02 14:58:28;;;;;;;9.10;2.00;;;;;;;;;;6301587;22;20008;-94
2022/01/02 15:04:34;;;;;;;8.15;1.48;;;;;;;;;;6303885;22;20071;-95
2022/01/02 15:07:01;;;;;;;7.90;1.88;;;;;;;;;;6304730;22;20022;-95
2022/01/02 15:09:28;;;;;;;9.55;2.60;;;;;;;;;;6304345;22;20067;-93
2022/01/02 15:15:36;;;;;;;8.80;1.98;;;;;;;;;;6304529;22;20458;-94
2022/01/02 15:18:04;;;;;;;9.65;1.52;;;;;;;;;;6303823;22;20023;-93
2022/01/02 15:20:31;;;;;;;10.05;3.55;;;;;;;;;;6304783;22;20011;-93
2022/01/02 15:22:58;;;;;;;10.15;1.90;;;;;;;;;;6304840;22;20022;-92
2022/01/02 15:35:25;;;;;;;10.95;1.58;;;;;;;;;;6242948;22;20015;-94
2022/01/02 15:37:53;;;;;;;12.40;2.03;;;;;;;;;;6302301;22;20032;-94
2022/01/02 15:40:21;;;;;;;10.23;1.83;;;;;;;;;;6301633;22;20019;-93
2022/01/02 15:42:52;;;;;;;9.88;1.90;;;;;;;;;;6302480;22;20034;-93
2022/01/02 15:45:19;;;;;;;8.40;1.35;;;;;;;;;;6301649;22;20015;-93
2022/01/02 15:47:49;;;;;;;10.60;1.98;;;;;;;;;;6302255;22;20059;-93
2022/01/02 15:50:17;;;;;;;8.23;1.30;;;;;;;;;;6303150;22;20012;-94
2022/01/02 15:52:54;;;;;;;5.38;1.42;;;;;;;;;;6303488;22;20016;-93
2022/01/02 15:55:21;;;;;;;10.20;1.67;;;;;;;;;;6303432;22;20038;-91
2022/01/02 15:58:31;;;;;;;8.95;1.25;;;;;;;;;;6303989;22;20030;-94
2022/01/02 16:00:58;;;;;;;11.05;1.35;;;;;;;;;;6303746;22;20011;-95
2022/01/02 16:03:26;;;;;;;7.18;1.50;;;;;;;;;;6303051;22;20111;-94
2022/01/02 16:05:56;;;;;;;9.65;1.77;;;;;;;;;;6302402;22;20020;-93
2022/01/02 16:08:36;;;;;;;6.40;1.23;;;;;;;;;;6303672;22;20015;-94
2022/01/02 16:11:04;;;;;;;7.95;1.38;;;;;;;;;;6303417;22;20034;-94
2022/01/02 16:13:31;;;;;;;10.95;1.38;;;;;;;;;;6302433;22;20011;-94
2022/01/02 16:16:00;;;;;;;8.55;1.92;;;;;;;;;;6301884;22;20020;-93
2022/01/02 16:18:43;;;;;;;10.32;1.60;;;;;;;;;;6302758;22;20027;-94
2022/01/02 16:21:25;;;;;;;8.18;1.35;;;;;;;;;;6303669;22;20023;-94
2022/01/02 16:23:53;;;;;;;8.20;1.40;;;;;;;;;;6303477;22;20030;-94
2022/01/02 16:26:20;;;;;;;5.25;1.30;;;;;;;;;;6302949;22;20051;-94
2022/01/02 16:28:47;;;;;;;5.88;1.20;;;;;;;;;;6303268;22;20023;-94
2022/01/02 16:31:27;;;;;;;8.98;1.48;;;;;;;;;;6302612;22;20019;-94
2022/01/02 16:33:56;;;;;;;6.15;0.93;;;;;;;;;;6303749;22;20007;-94
2022/01/02 16:36:27;;;;;;;7.57;1.23;;;;;;;;;;6304832;22;20037;-94
2022/01/02 16:42:39;;;;;;;5.75;1.02;;;;;;;;;;6305002;22;20010;-94
2022/01/02 16:45:06;;;;;;;10.27;1.35;;;;;;;;;;6304395;22;20034;-94
2022/01/02 16:47:36;;;;;;;7.60;1.35;;;;;;;;;;6304478;22;20026;-95
2022/01/02 16:50:05;;;;;;;9.95;1.40;;;;;;;;;;6304683;22;20027;-95
2022/01/02 16:52:38;;;;;;;12.90;1.73;;;;;;;;;;6304724;22;20022;-94
2022/01/02 16:55:09;;;;;;;7.50;1.10;;;;;;;;;;6304742;22;20687;-93
2022/01/02 16:57:42;;;;;;;5.88;1.30;;;;;;;;;;6304645;22;20008;-95
2022/01/02 17:00:09;;;;;;;5.85;1.10;;;;;;;;;;6304580;22;20014;-94
2022/01/02 17:02:36;;;;;;;15.30;4.57;;;;;;;;;;6304420;22;20008;-95
2022/01/02 17:05:05;;;;;;;7.47;1.63;;;;;;;;;;6304664;22;20016;-93
2022/01/02 17:07:32;;;;;;;10.68;1.58;;;;;;;;;;6304546;22;20008;-95
2022/01/02 17:09:58;;;;;;;9.38;1.90;;;;;;;;;;6304610;22;20004;-94
2022/01/02 17:12:43;;;;;;;7.45;1.52;;;;;;;;;;6304022;22;20011;-94
2022/01/02 17:15:18;;;;;;;9.50;1.35;;;;;;;;;;6304437;22;20037;-94
2022/01/02 17:17:59;;;;;;;3.92;1.38;;;;;;;;;;6304109;22;20008;-95
2022/01/02 17:20:36;;;;;;;8.88;2.60;;;;;;;;;;6304548;22;20011;-93
2022/01/02 17:30:24;;;;;;;10.75;1.70;;;;;;;;;;6304371;22;20047;-94
2022/01/02 17:33:05;;;;;;;11.82;2.13;;;;;;;;;;6303669;22;20015;-94
2022/01/02 17:35:32;;;;;;;8.77;1.80;;;;;;;;;;6303385;22;20046;-94
2022/01/02 17:51:40;;;;;;;15.88;2.00;;;;;;;;;;6304855;22;20053;-95
2022/01/02 17:54:08;;;;;;;8.00;1.80;;;;;;;;;;6303573;22;20027;-94
2022/01/02 17:56:36;;;;;;;15.52;2.45;;;;;;;;;;6304070;22;20016;-95
2022/01/02 17:59:07;;;;;;;6.90;2.55;;;;;;;;;;6303834;22;20029;-94
2022/01/02 18:05:03;;;;;;;14.15;1.77;;;;;;;;;;6304772;22;20017;-94
2022/01/02 18:07:33;;;;;;;8.63;3.88;;;;;;;;;;6303737;22;20072;-94
2022/01/02 18:10:06;;;;;;;12.10;2.28;;;;;;;;;;6304075;22;20003;-94
2022/01/02 18:15:59;;;;;;;10.45;1.83;;;;;;;;;;6304774;22;20018;-94
2022/01/02 18:18:27;;;;;;;17.17;2.20;;;;;;;;;;6304117;22;20010;-95
2022/01/02 18:21:08;;;;;;;13.32;4.95;;;;;;;;;;6301792;22;20008;-96
2022/01/02 18:23:42;;;;;;;14.57;3.13;;;;;;;;;;6304068;22;20055;-96
2022/01/02 18:26:25;;;;;;;7.88;1.50;;;;;;;;;;6301181;22;20012;-96
2022/01/02 18:29:05;;;;;;;18.20;2.45;;;;;;;;;;6302851;22;20022;-96
2022/01/02 18:31:35;;;;;;;11.18;1.92;;;;;;;;;;6303739;22;20054;-96
2022/01/02 18:34:12;;;;;;;8.48;1.85;;;;;;;;;;6303923;22;20048;-96
2022/01/02 18:36:52;;;;;;;8.25;1.58;;;;;;;;;;6302792;22;20031;-96
2022/01/02 18:39:35;;;;;;;9.52;1.92;;;;;;;;;;6302630;22;20012;-95
2022/01/02 18:42:16;;;;;;;6.15;1.45;;;;;;;;;;6300884;22;20040;-95
2022/01/02 18:44:56;;;;;;;8.48;1.70;;;;;;;;;;6302598;22;20008;-95
2022/01/02 18:47:37;;;;;;;9.10;1.55;;;;;;;;;;6302242;22;20014;-95
2022/01/02 18:50:17;;;;;;;9.98;1.90;;;;;;;;;;6302669;22;20011;-95
2022/01/02 18:53:01;;;;;;;9.55;1.80;;;;;;;;;;6301590;22;20016;-96
2022/01/02 18:55:42;;;;;;;14.88;2.30;;;;;;;;;;6303066;22;20000;-96
2022/01/02 18:58:23;;;;;;;6.18;1.88;;;;;;;;;;6303620;22;20008;-96
2022/01/02 19:01:04;;;;;;;13.45;1.67;;;;;;;;;;6302687;22;20000;-96
2022/01/02 19:03:46;;;;;;;8.65;1.65;;;;;;;;;;6302645;22;20046;-96
2022/01/02 19:06:27;;;;;;;8.93;1.70;;;;;;;;;;6302921;22;20049;-96
2022/01/02 19:09:08;;;;;;;9.05;1.73;;;;;;;;;;6300277;22;20062;-95
